sensor_id;sensor_type;location;lat;lon;timestamp;temperature;humidity
48328;DHT22;34136;51.022;7.082;2022-10-16T00:02:41;14.60;18.40
48328;DHT22;34136;51.022;7.082;2022-10-16T00:05:29;14.50;18.40
48328;DHT22;34136;51.022;7.082;2022-10-16T00:08:16;14.40;18.40
48328;DHT22;34136;51.022;7.082;2022-10-16T00:11:05;14.40;19.00
48328;DHT22;34136;51.022;7.082;2022-10-16T00:13:55;14.40;18.90
48328;DHT22;34136;51.022;7.082;2022-10-16T00:16:41;14.40;19.00
48328;DHT22;34136;51.022;7.082;2022-10-16T00:19:28;14.40;18.90
48328;DHT22;34136;51.022;7.082;2022-10-16T00:22:14;14.40;19.20
48328;DHT22;34136;51.022;7.082;2022-10-16T00:25:00;14.40;19.00
48328;DHT22;34136;51.022;7.082;2022-10-16T00:27:47;14.40;19.10
48328;DHT22;34136;51.022;7.082;2022-10-16T00:30:33;14.40;19.00
48328;DHT22;34136;51.022;7.082;2022-10-16T00:33:20;14.30;19.00
48328;DHT22;34136;51.022;7.082;2022-10-16T00:36:10;14.40;19.00
48328;DHT22;34136;51.022;7.082;2022-10-16T00:38:57;14.40;19.00
48328;DHT22;34136;51.022;7.082;2022-10-16T00:41:44;14.40;18.50
48328;DHT22;34136;51.022;7.082;2022-10-16T00:44:52;14.40;18.30
48328;DHT22;34136;51.022;7.082;2022-10-16T00:47:42;14.40;18.40
48328;DHT22;34136;51.022;7.082;2022-10-16T00:50:33;14.40;18.10
48328;DHT22;34136;51.022;7.082;2022-10-16T00:53:21;14.30;17.80
48328;DHT22;34136;51.022;7.082;2022-10-16T00:56:08;14.30;17.60
48328;DHT22;34136;51.022;7.082;2022-10-16T00:58:54;14.30;17.30
48328;DHT22;34136;51.022;7.082;2022-10-16T01:01:41;14.20;17.20
48328;DHT22;34136;51.022;7.082;2022-10-16T01:04:35;14.20;17.10
48328;DHT22;34136;51.022;7.082;2022-10-16T01:10:39;14.10;17.10
48328;DHT22;34136;51.022;7.082;2022-10-16T01:19:20;14.10;18.00
48328;DHT22;34136;51.022;7.082;2022-10-16T01:22:13;14.10;18.00
48328;DHT22;34136;51.022;7.082;2022-10-16T01:25:00;14.10;18.10
48328;DHT22;34136;51.022;7.082;2022-10-16T01:27:51;14.10;18.50
48328;DHT22;34136;51.022;7.082;2022-10-16T01:30:40;14.10;18.70
48328;DHT22;34136;51.022;7.082;2022-10-16T01:33:40;14.10;18.90
48328;DHT22;34136;51.022;7.082;2022-10-16T01:36:37;14.10;18.80
48328;DHT22;34136;51.022;7.082;2022-10-16T01:39:28;14.10;18.60
48328;DHT22;34136;51.022;7.082;2022-10-16T01:42:20;14.10;18.50
48328;DHT22;34136;51.022;7.082;2022-10-16T01:45:10;14.10;18.60
48328;DHT22;34136;51.022;7.082;2022-10-16T01:47:59;14.10;18.60
48328;DHT22;34136;51.022;7.082;2022-10-16T01:50:56;14.00;18.60
48328;DHT22;34136;51.022;7.082;2022-10-16T01:53:47;14.10;18.60
48328;DHT22;34136;51.022;7.082;2022-10-16T01:56:35;14.10;18.70
48328;DHT22;34136;51.022;7.082;2022-10-16T01:59:25;14.10;18.60
48328;DHT22;34136;51.022;7.082;2022-10-16T02:02:13;14.10;18.40
48328;DHT22;34136;51.022;7.082;2022-10-16T02:08:25;14.10;18.40
48328;DHT22;34136;51.022;7.082;2022-10-16T02:11:12;14.00;18.70
48328;DHT22;34136;51.022;7.082;2022-10-16T02:14:04;14.00;18.60
48328;DHT22;34136;51.022;7.082;2022-10-16T02:16:50;14.10;18.60
48328;DHT22;34136;51.022;7.082;2022-10-16T02:19:37;14.10;18.50
48328;DHT22;34136;51.022;7.082;2022-10-16T02:22:35;14.10;18.30
48328;DHT22;34136;51.022;7.082;2022-10-16T02:25:29;14.10;18.10
48328;DHT22;34136;51.022;7.082;2022-10-16T02:28:19;14.20;18.10
48328;DHT22;34136;51.022;7.082;2022-10-16T02:31:08;14.20;18.20
48328;DHT22;34136;51.022;7.082;2022-10-16T02:33:58;14.10;18.10
48328;DHT22;34136;51.022;7.082;2022-10-16T02:36:45;14.10;18.40
48328;DHT22;34136;51.022;7.082;2022-10-16T02:39:32;14.20;18.20
48328;DHT22;34136;51.022;7.082;2022-10-16T02:42:20;14.20;18.30
48328;DHT22;34136;51.022;7.082;2022-10-16T02:45:07;14.20;18.30
48328;DHT22;34136;51.022;7.082;2022-10-16T02:47:54;14.20;18.20
48328;DHT22;34136;51.022;7.082;2022-10-16T02:50:40;14.20;18.50
48328;DHT22;34136;51.022;7.082;2022-10-16T02:53:27;14.20;18.50
48328;DHT22;34136;51.022;7.082;2022-10-16T02:56:13;14.20;18.60
48328;DHT22;34136;51.022;7.082;2022-10-16T02:58:59;14.20;18.30
48328;DHT22;34136;51.022;7.082;2022-10-16T03:01:46;14.20;18.30
48328;DHT22;34136;51.022;7.082;2022-10-16T03:04:32;14.20;18.30
48328;DHT22;34136;51.022;7.082;2022-10-16T03:07:18;14.30;18.30
48328;DHT22;34136;51.022;7.082;2022-10-16T03:10:05;14.30;18.30
48328;DHT22;34136;51.022;7.082;2022-10-16T03:12:51;14.30;18.10
48328;DHT22;34136;51.022;7.082;2022-10-16T03:15:37;14.30;17.90
48328;DHT22;34136;51.022;7.082;2022-10-16T03:18:24;14.30;17.80
48328;DHT22;34136;51.022;7.082;2022-10-16T03:21:10;14.30;17.60
48328;DHT22;34136;51.022;7.082;2022-10-16T03:23:56;14.30;17.50
48328;DHT22;34136;51.022;7.082;2022-10-16T03:26:43;14.30;17.40
48328;DHT22;34136;51.022;7.082;2022-10-16T03:29:29;14.30;17.40
48328;DHT22;34136;51.022;7.082;2022-10-16T03:32:15;14.30;17.50
48328;DHT22;34136;51.022;7.082;2022-10-16T03:35:01;14.30;17.40
48328;DHT22;34136;51.022;7.082;2022-10-16T03:37:48;14.20;17.20
48328;DHT22;34136;51.022;7.082;2022-10-16T03:40:34;14.20;17.40
48328;DHT22;34136;51.022;7.082;2022-10-16T03:43:20;14.20;17.90
48328;DHT22;34136;51.022;7.082;2022-10-16T03:46:06;14.10;17.70
48328;DHT22;34136;51.022;7.082;2022-10-16T03:48:53;14.10;17.80
48328;DHT22;34136;51.022;7.082;2022-10-16T03:51:39;14.10;18.20
48328;DHT22;34136;51.022;7.082;2022-10-16T03:54:25;14.10;18.20
48328;DHT22;34136;51.022;7.082;2022-10-16T03:57:12;14.10;18.30
48328;DHT22;34136;51.022;7.082;2022-10-16T03:59:58;14.20;18.30
48328;DHT22;34136;51.022;7.082;2022-10-16T04:02:45;14.20;18.20
48328;DHT22;34136;51.022;7.082;2022-10-16T04:05:31;14.10;18.00
48328;DHT22;34136;51.022;7.082;2022-10-16T04:08:17;14.20;18.00
48328;DHT22;34136;51.022;7.082;2022-10-16T04:11:03;14.20;18.20
48328;DHT22;34136;51.022;7.082;2022-10-16T04:13:50;14.10;18.10
48328;DHT22;34136;51.022;7.082;2022-10-16T04:16:36;14.20;18.40
48328;DHT22;34136;51.022;7.082;2022-10-16T04:19:22;14.20;18.60
48328;DHT22;34136;51.022;7.082;2022-10-16T04:22:08;14.20;18.60
48328;DHT22;34136;51.022;7.082;2022-10-16T04:24:54;14.20;18.70
48328;DHT22;34136;51.022;7.082;2022-10-16T04:27:40;14.10;18.60
48328;DHT22;34136;51.022;7.082;2022-10-16T04:30:27;14.20;18.60
48328;DHT22;34136;51.022;7.082;2022-10-16T04:33:13;14.20;18.40
48328;DHT22;34136;51.022;7.082;2022-10-16T04:36:00;14.20;18.40
48328;DHT22;34136;51.022;7.082;2022-10-16T04:38:47;14.20;18.30
48328;DHT22;34136;51.022;7.082;2022-10-16T04:41:34;14.10;18.60
48328;DHT22;34136;51.022;7.082;2022-10-16T04:44:20;14.20;18.40
48328;DHT22;34136;51.022;7.082;2022-10-16T04:47:07;14.20;18.40
48328;DHT22;34136;51.022;7.082;2022-10-16T04:49:54;14.20;18.10
48328;DHT22;34136;51.022;7.082;2022-10-16T04:52:40;14.10;18.10
48328;DHT22;34136;51.022;7.082;2022-10-16T04:55:26;14.10;18.20
48328;DHT22;34136;51.022;7.082;2022-10-16T04:58:13;14.10;18.10
48328;DHT22;34136;51.022;7.082;2022-10-16T05:00:59;14.10;18.00
48328;DHT22;34136;51.022;7.082;2022-10-16T05:03:46;14.10;17.90
48328;DHT22;34136;51.022;7.082;2022-10-16T05:06:32;14.10;17.80
48328;DHT22;34136;51.022;7.082;2022-10-16T05:09:18;14.10;18.00
48328;DHT22;34136;51.022;7.082;2022-10-16T05:12:04;14.10;17.90
48328;DHT22;34136;51.022;7.082;2022-10-16T05:14:51;14.10;17.90
48328;DHT22;34136;51.022;7.082;2022-10-16T05:17:37;14.10;17.80
48328;DHT22;34136;51.022;7.082;2022-10-16T05:20:23;14.00;17.80
48328;DHT22;34136;51.022;7.082;2022-10-16T05:23:10;14.00;17.80
48328;DHT22;34136;51.022;7.082;2022-10-16T05:25:57;14.00;17.70
48328;DHT22;34136;51.022;7.082;2022-10-16T05:28:43;14.00;17.60
48328;DHT22;34136;51.022;7.082;2022-10-16T05:31:30;14.00;17.70
48328;DHT22;34136;51.022;7.082;2022-10-16T05:34:16;14.00;17.70
48328;DHT22;34136;51.022;7.082;2022-10-16T05:37:02;14.00;17.90
48328;DHT22;34136;51.022;7.082;2022-10-16T05:39:48;14.00;17.70
48328;DHT22;34136;51.022;7.082;2022-10-16T05:42:35;14.00;17.90
48328;DHT22;34136;51.022;7.082;2022-10-16T05:45:21;14.10;17.60
48328;DHT22;34136;51.022;7.082;2022-10-16T05:48:07;14.00;17.60
48328;DHT22;34136;51.022;7.082;2022-10-16T05:51:01;14.10;17.60
48328;DHT22;34136;51.022;7.082;2022-10-16T05:53:48;14.10;17.50
48328;DHT22;34136;51.022;7.082;2022-10-16T05:56:34;14.00;17.50
48328;DHT22;34136;51.022;7.082;2022-10-16T05:59:21;14.00;17.60
48328;DHT22;34136;51.022;7.082;2022-10-16T06:02:12;14.00;17.70
48328;DHT22;34136;51.022;7.082;2022-10-16T06:04:59;14.00;17.50
48328;DHT22;34136;51.022;7.082;2022-10-16T06:07:45;14.00;17.30
48328;DHT22;34136;51.022;7.082;2022-10-16T06:10:31;14.00;17.80
48328;DHT22;34136;51.022;7.082;2022-10-16T06:13:17;14.00;17.20
48328;DHT22;34136;51.022;7.082;2022-10-16T06:16:04;13.90;17.30
48328;DHT22;34136;51.022;7.082;2022-10-16T06:18:51;13.90;17.40
48328;DHT22;34136;51.022;7.082;2022-10-16T06:21:38;13.90;17.70
48328;DHT22;34136;51.022;7.082;2022-10-16T06:24:25;13.80;17.40
48328;DHT22;34136;51.022;7.082;2022-10-16T06:27:11;13.80;17.50
48328;DHT22;34136;51.022;7.082;2022-10-16T06:29:57;13.80;17.30
48328;DHT22;34136;51.022;7.082;2022-10-16T06:32:43;13.80;17.60
48328;DHT22;34136;51.022;7.082;2022-10-16T06:35:29;13.80;17.70
48328;DHT22;34136;51.022;7.082;2022-10-16T06:38:16;13.80;18.20
48328;DHT22;34136;51.022;7.082;2022-10-16T06:41:03;13.90;18.40
48328;DHT22;34136;51.022;7.082;2022-10-16T06:43:49;13.90;18.50
48328;DHT22;34136;51.022;7.082;2022-10-16T06:46:35;13.90;18.50
48328;DHT22;34136;51.022;7.082;2022-10-16T06:49:23;13.90;18.70
48328;DHT22;34136;51.022;7.082;2022-10-16T06:52:09;14.00;18.90
48328;DHT22;34136;51.022;7.082;2022-10-16T06:54:55;14.00;18.80
48328;DHT22;34136;51.022;7.082;2022-10-16T06:57:41;14.10;19.20
48328;DHT22;34136;51.022;7.082;2022-10-16T07:00:27;14.20;19.10
48328;DHT22;34136;51.022;7.082;2022-10-16T07:03:13;14.20;19.10
48328;DHT22;34136;51.022;7.082;2022-10-16T07:06:04;14.20;19.10
48328;DHT22;34136;51.022;7.082;2022-10-16T07:08:51;14.30;19.40
48328;DHT22;34136;51.022;7.082;2022-10-16T07:11:39;14.30;19.20
48328;DHT22;34136;51.022;7.082;2022-10-16T07:14:25;14.30;19.40
48328;DHT22;34136;51.022;7.082;2022-10-16T07:17:11;14.40;19.40
48328;DHT22;34136;51.022;7.082;2022-10-16T07:19:57;14.40;19.40
48328;DHT22;34136;51.022;7.082;2022-10-16T07:22:44;14.50;19.10
48328;DHT22;34136;51.022;7.082;2022-10-16T07:25:30;14.50;19.20
48328;DHT22;34136;51.022;7.082;2022-10-16T07:28:16;14.60;19.20
48328;DHT22;34136;51.022;7.082;2022-10-16T07:31:07;14.70;19.20
48328;DHT22;34136;51.022;7.082;2022-10-16T07:33:54;14.80;19.00
48328;DHT22;34136;51.022;7.082;2022-10-16T07:36:40;14.80;18.90
48328;DHT22;34136;51.022;7.082;2022-10-16T07:39:26;14.90;18.40
48328;DHT22;34136;51.022;7.082;2022-10-16T07:42:12;14.90;18.30
48328;DHT22;34136;51.022;7.082;2022-10-16T07:44:59;14.90;18.10
48328;DHT22;34136;51.022;7.082;2022-10-16T07:47:45;15.00;18.00
48328;DHT22;34136;51.022;7.082;2022-10-16T07:50:31;15.10;17.80
48328;DHT22;34136;51.022;7.082;2022-10-16T07:53:17;15.10;17.30
48328;DHT22;34136;51.022;7.082;2022-10-16T07:56:05;15.20;17.20
48328;DHT22;34136;51.022;7.082;2022-10-16T07:58:52;15.20;17.10
48328;DHT22;34136;51.022;7.082;2022-10-16T08:01:38;15.30;17.10
48328;DHT22;34136;51.022;7.082;2022-10-16T08:04:25;15.30;16.90
48328;DHT22;34136;51.022;7.082;2022-10-16T08:07:11;15.40;16.60
48328;DHT22;34136;51.022;7.082;2022-10-16T08:09:57;15.40;16.20
48328;DHT22;34136;51.022;7.082;2022-10-16T08:12:43;15.50;15.40
48328;DHT22;34136;51.022;7.082;2022-10-16T08:15:29;15.60;15.00
48328;DHT22;34136;51.022;7.082;2022-10-16T08:18:16;15.70;14.60
48328;DHT22;34136;51.022;7.082;2022-10-16T08:21:03;15.80;13.80
48328;DHT22;34136;51.022;7.082;2022-10-16T08:23:50;15.90;13.80
48328;DHT22;34136;51.022;7.082;2022-10-16T08:26:36;16.00;13.30
48328;DHT22;34136;51.022;7.082;2022-10-16T08:29:22;16.00;11.90
48328;DHT22;34136;51.022;7.082;2022-10-16T08:32:08;16.20;11.70
48328;DHT22;34136;51.022;7.082;2022-10-16T08:34:54;16.30;11.00
48328;DHT22;34136;51.022;7.082;2022-10-16T08:37:41;16.50;9.60
48328;DHT22;34136;51.022;7.082;2022-10-16T08:40:29;16.60;9.10
48328;DHT22;34136;51.022;7.082;2022-10-16T08:43:35;16.70;9.60
48328;DHT22;34136;51.022;7.082;2022-10-16T08:49:30;16.90;7.60
48328;DHT22;34136;51.022;7.082;2022-10-16T08:52:17;17.10;7.70
48328;DHT22;34136;51.022;7.082;2022-10-16T08:55:04;17.10;5.80
48328;DHT22;34136;51.022;7.082;2022-10-16T08:57:51;17.20;6.00
48328;DHT22;34136;51.022;7.082;2022-10-16T09:00:38;17.30;5.40
48328;DHT22;34136;51.022;7.082;2022-10-16T09:06:50;17.50;4.20
48328;DHT22;34136;51.022;7.082;2022-10-16T09:10:03;17.60;3.60
48328;DHT22;34136;51.022;7.082;2022-10-16T09:13:03;17.70;2.30
48328;DHT22;34136;51.022;7.082;2022-10-16T09:19:21;17.90;1.00
48328;DHT22;34136;51.022;7.082;2022-10-16T09:22:13;18.00;1.00
48328;DHT22;34136;51.022;7.082;2022-10-16T09:25:10;18.00;1.00
48328;DHT22;34136;51.022;7.082;2022-10-16T09:27:57;18.10;1.00
48328;DHT22;34136;51.022;7.082;2022-10-16T09:30:44;18.20;1.00
48328;DHT22;34136;51.022;7.082;2022-10-16T09:33:36;18.40;1.00
48328;DHT22;34136;51.022;7.082;2022-10-16T09:36:25;18.40;1.00
48328;DHT22;34136;51.022;7.082;2022-10-16T09:39:12;18.50;1.00
48328;DHT22;34136;51.022;7.082;2022-10-16T09:42:00;18.50;1.00
48328;DHT22;34136;51.022;7.082;2022-10-16T09:44:48;18.70;1.00
48328;DHT22;34136;51.022;7.082;2022-10-16T09:47:39;18.80;1.00
48328;DHT22;34136;51.022;7.082;2022-10-16T09:50:28;19.00;1.00
48328;DHT22;34136;51.022;7.082;2022-10-16T09:53:15;18.90;1.00
48328;DHT22;34136;51.022;7.082;2022-10-16T09:56:01;18.90;1.00
48328;DHT22;34136;51.022;7.082;2022-10-16T09:58:55;19.00;1.00
